Wolfpit, Kentucky
Current Conditions -  °F | °C
As of 12:15 PM on Sunday 21 Dec 2014 (Local Time) from KPBX Reporting Station
Clear Clear  
Wind Chill: 35°   Ceiling: Unl
Heat Index: 38°   Visibility: 10mi
Dew Point: 28°   Wind: 5mph
Humidity: 68%   Direction: 220°SW
Pressure: 30.22"   Gusts: NA
Location:  37.3089°N, 82.3418°W
Report Text: KPBX 211715Z AUTO 22004KT 10SM CLR 03/M02 A3022 RMK AO2 T00341020
Loading
Personal Weather Stations






























Interactive Weather Map New forecast layout! Learn more

10-Day Weather Forecast

Advertisements
Track Severe Weather on mobile